Time;durP1;ratioP1;P1;durP2;ratioP2;P2;SDS_P1;SDS_P2;PMS_P1;PMS_P2;Temp;Humidity;BMP_temperature;BMP_pressure;BME280_temperature;BME280_humidity;BME280_pressure;Samples;Min_cycle;Max_cycle;Signal;HPM_P1;HPM_P2
2023/01/27 00:01:46;;;;;;;41.35;22.50;;;1.50;99.90;;;;;;4994294;28;20454;-79
2023/01/27 00:04:12;;;;;;;45.70;24.10;;;1.40;99.90;;;;;;4992163;28;20475;-80
2023/01/27 00:06:38;;;;;;;44.37;23.87;;;1.30;99.90;;;;;;4993810;28;20495;-80
2023/01/27 00:09:03;;;;;;;48.97;24.53;;;1.70;99.90;;;;;;4984522;28;20502;-79
2023/01/27 00:14:14;;;;;;;48.73;24.73;;;1.00;99.90;;;;;;5009569;28;20760;-82
2023/01/27 00:16:39;;;;;;;50.60;24.70;;;1.10;99.90;;;;;;5008390;28;20375;-80
2023/01/27 00:19:05;;;;;;;49.15;24.13;;;1.20;99.90;;;;;;5007369;28;20392;-79
2023/01/27 00:26:59;;;;;;;48.38;23.98;;;1.40;99.90;;;;;;4996624;28;20451;-78
2023/01/27 00:29:24;;;;;;;59.80;25.85;;;1.30;99.90;;;;;;4996675;28;20878;-80
2023/01/27 00:34:35;;;;;;;44.13;23.33;;;1.20;99.90;;;;;;4997799;28;20483;-78
2023/01/27 00:37:01;;;;;;;46.63;23.92;;;1.50;99.90;;;;;;4998703;28;20382;-79
2023/01/27 00:39:27;;;;;;;49.00;24.55;;;1.80;99.90;;;;;;4998820;28;20397;-79
2023/01/27 00:41:54;;;;;;;46.00;23.65;;;1.60;99.90;;;;;;4997901;28;20445;-79
2023/01/27 00:44:19;;;;;;;44.92;23.40;;;1.60;99.90;;;;;;4998556;28;20431;-80
2023/01/27 00:46:45;;;;;;;48.50;23.77;;;1.70;99.90;;;;;;4995159;28;20887;-79
2023/01/27 00:49:12;;;;;;;54.03;25.57;;;1.70;99.90;;;;;;4992085;28;21393;-79
2023/01/27 00:51:38;;;;;;;46.00;25.07;;;1.60;99.90;;;;;;4999409;28;20558;-80
2023/01/27 00:54:04;;;;;;;52.67;26.50;;;1.80;99.90;;;;;;4992490;28;20405;-79
2023/01/27 00:56:30;;;;;;;57.15;26.13;;;1.40;99.90;;;;;;4989854;28;20415;-79
2023/01/27 00:58:55;;;;;;;46.63;23.90;;;1.60;99.90;;;;;;4995593;28;20893;-81
2023/01/27 01:01:21;;;;;;;60.97;28.20;;;1.70;99.90;;;;;;5007384;28;20407;-81
2023/01/27 01:03:47;;;;;;;60.33;26.52;;;1.30;99.90;;;;;;5004840;28;20910;-80
2023/01/27 01:06:15;;;;;;;51.47;26.13;;;1.30;99.90;;;;;;5002797;28;20474;-80
2023/01/27 01:08:41;;;;;;;55.10;27.40;;;1.60;99.90;;;;;;5009006;28;20444;-81
2023/01/27 01:11:10;;;;;;;50.90;24.30;;;1.20;99.90;;;;;;4998533;28;20441;-79
2023/01/27 01:13:35;;;;;;;56.35;26.40;;;1.30;99.90;;;;;;4990616;28;20391;-81
2023/01/27 01:16:11;;;;;;;50.73;25.47;;;1.40;99.90;;;;;;5261120;22;20828;-79
2023/01/27 01:18:38;;;;;;;44.33;23.40;;;1.40;99.90;;;;;;4984662;28;20403;-81
2023/01/27 01:21:07;;;;;;;53.13;25.08;;;2.00;99.90;;;;;;4984706;28;20449;-80
2023/01/27 01:23:36;;;;;;;50.10;24.35;;;1.50;99.90;;;;;;4974022;28;20808;-81
2023/01/27 01:26:02;;;;;;;48.78;23.65;;;1.40;99.90;;;;;;4987282;28;20434;-79
2023/01/27 01:28:28;;;;;;;46.38;22.63;;;1.50;99.90;;;;;;5011433;28;20790;-78
2023/01/27 01:30:54;;;;;;;41.15;22.48;;;1.70;99.90;;;;;;5012236;28;20405;-79
2023/01/27 01:33:19;;;;;;;43.22;22.25;;;1.60;99.90;;;;;;5012326;28;20721;-80
2023/01/27 01:35:45;;;;;;;44.10;21.73;;;1.50;99.90;;;;;;5011866;28;20781;-80
2023/01/27 01:38:11;;;;;;;47.07;23.27;;;1.60;99.90;;;;;;5011691;28;20379;-78
2023/01/27 01:40:43;;;;;;;44.13;22.20;;;1.50;99.90;;;;;;5012039;28;20940;-80
2023/01/27 01:43:16;;;;;;;49.22;23.35;;;1.40;99.90;;;;;;5012018;28;20446;-79
2023/01/27 01:45:58;;;;;;;52.85;24.75;;;1.30;99.90;;;;;;5009379;28;20944;-77
2023/01/27 01:48:41;;;;;;;43.65;22.65;;;1.30;99.90;;;;;;5010573;28;20405;-78
2023/01/27 01:51:25;;;;;;;38.65;21.77;;;1.30;99.90;;;;;;5009773;28;20451;-81
2023/01/27 01:53:58;;;;;;;46.08;22.45;;;1.50;99.90;;;;;;5011640;28;20458;-79
2023/01/27 01:56:29;;;;;;;51.60;23.70;;;1.30;99.90;;;;;;5007805;28;20402;-81
2023/01/27 01:58:57;;;;;;;53.50;23.58;;;1.10;99.90;;;;;;5009237;28;20399;-81
2023/01/27 02:01:22;;;;;;;46.67;22.58;;;1.40;99.90;;;;;;5010716;28;20703;-79
2023/01/27 02:03:53;;;;;;;47.00;22.47;;;1.50;99.90;;;;;;5008736;28;20410;-80
2023/01/27 02:06:20;;;;;;;50.20;24.25;;;1.30;99.90;;;;;;5007152;28;21007;-79
2023/01/27 02:08:48;;;;;;;62.53;25.33;;;1.50;99.90;;;;;;5008694;28;20409;-79
2023/01/27 02:11:13;;;;;;;75.78;27.25;;;1.20;99.90;;;;;;5011138;28;20407;-80
2023/01/27 02:13:40;;;;;;;54.13;23.30;;;1.10;99.90;;;;;;5009734;28;20466;-80
2023/01/27 02:16:07;;;;;;;55.25;23.55;;;1.20;99.90;;;;;;5008335;28;20442;-79
2023/01/27 02:18:32;;;;;;;46.20;21.42;;;1.40;99.90;;;;;;5008334;28;20498;-78
2023/01/27 02:20:58;;;;;;;65.72;25.08;;;1.50;99.90;;;;;;5009669;28;20470;-80
2023/01/27 02:23:36;;;;;;;49.53;23.23;;;1.40;99.90;;;;;;5009437;28;20403;-79
2023/01/27 02:26:12;;;;;;;52.78;22.40;;;1.50;99.90;;;;;;5010342;28;20398;-80
2023/01/27 02:28:38;;;;;;;50.08;22.42;;;1.60;99.90;;;;;;5007355;28;20407;-79
2023/01/27 02:31:04;;;;;;;55.43;23.97;;;1.70;99.90;;;;;;5009782;28;20492;-79
2023/01/27 02:33:30;;;;;;;52.07;22.97;;;1.60;99.90;;;;;;5009939;28;20494;-81
2023/01/27 02:36:04;;;;;;;51.03;22.60;;;1.90;99.90;;;;;;5008439;28;20422;-80
2023/01/27 02:38:35;;;;;;;43.83;21.55;;;1.60;99.90;;;;;;5009050;28;20872;-80
2023/01/27 02:41:14;;;;;;;47.30;22.50;;;1.70;99.90;;;;;;5010684;28;20395;-79
2023/01/27 02:43:41;;;;;;;48.83;23.20;;;1.80;99.90;;;;;;5008201;28;21672;-79
2023/01/27 02:46:07;;;;;;;53.55;21.98;;;1.80;99.90;;;;;;5009756;28;20395;-78
2023/01/27 02:48:33;;;;;;;51.47;23.00;;;1.80;99.90;;;;;;5007931;28;20399;-78
2023/01/27 02:50:58;;;;;;;37.37;20.53;;;1.70;99.90;;;;;;5007330;28;20460;-81
2023/01/27 02:53:24;;;;;;;41.97;20.77;;;1.80;99.90;;;;;;5009340;28;20402;-80
2023/01/27 02:55:50;;;;;;;42.37;20.83;;;2.00;99.90;;;;;;5009311;28;20410;-81
2023/01/27 02:58:15;;;;;;;45.07;20.43;;;2.00;99.90;;;;;;5007739;28;20804;-80
2023/01/27 03:00:42;;;;;;;45.83;22.00;;;1.90;99.90;;;;;;5008595;28;20407;-80
2023/01/27 03:03:08;;;;;;;45.03;21.40;;;1.80;99.90;;;;;;5008398;28;20426;-78
2023/01/27 03:05:34;;;;;;;35.65;18.48;;;1.60;99.90;;;;;;5007736;28;20420;-79
2023/01/27 03:07:59;;;;;;;42.65;20.50;;;1.70;99.90;;;;;;5007227;28;20888;-78
2023/01/27 03:10:25;;;;;;;34.53;17.98;;;1.80;99.90;;;;;;5007906;28;20417;-79
2023/01/27 03:12:51;;;;;;;42.30;20.20;;;1.90;99.90;;;;;;5009582;28;20878;-79
2023/01/27 03:18:12;;;;;;;35.67;18.80;;;2.10;99.90;;;;;;4989405;28;20446;-78
2023/01/27 03:20:48;;;;;;;30.13;17.58;;;1.90;99.90;;;;;;4983473;28;20423;-78
2023/01/27 03:23:16;;;;;;;33.53;18.27;;;1.90;99.90;;;;;;4984147;28;21084;-80
2023/01/27 03:25:47;;;;;;;28.10;17.05;;;1.80;99.90;;;;;;4983303;28;20746;-80
2023/01/27 03:28:13;;;;;;;33.33;18.55;;;1.80;99.90;;;;;;4982644;28;20413;-80
2023/01/27 03:30:40;;;;;;;34.08;18.17;;;1.90;99.90;;;;;;4982105;28;20818;-79
2023/01/27 03:33:06;;;;;;;31.63;17.95;;;1.80;99.90;;;;;;4983825;28;20398;-78
2023/01/27 03:35:37;;;;;;;31.27;16.75;;;1.70;99.90;;;;;;4982277;28;20427;-80
2023/01/27 03:46:21;;;;;;;31.45;17.50;;;1.60;99.90;;;;;;4981877;28;20612;-80
2023/01/27 03:48:52;;;;;;;33.00;17.23;;;2.00;99.90;;;;;;4978608;28;20410;-81
2023/01/27 03:51:20;;;;;;;28.75;16.80;;;1.90;99.90;;;;;;4983375;28;20450;-78
2023/01/27 03:53:46;;;;;;;33.63;17.75;;;2.00;99.90;;;;;;4985789;28;20893;-81
2023/01/27 03:56:13;;;;;;;27.57;17.53;;;2.00;99.90;;;;;;5001924;28;20861;-80
2023/01/27 03:58:39;;;;;;;32.83;18.27;;;1.90;99.90;;;;;;5007692;28;20391;-80
2023/01/27 04:01:10;;;;;;;31.43;17.67;;;1.90;99.90;;;;;;5006467;28;20410;-80
2023/01/27 04:09:11;;;;;;;27.00;16.67;;;1.70;99.90;;;;;;5002182;28;21303;-79
2023/01/27 04:11:56;;;;;;;30.60;17.67;;;1.80;99.90;;;;;;5006752;28;20411;-80
2023/01/27 04:14:23;;;;;;;30.17;17.67;;;1.70;99.90;;;;;;5007457;28;20394;-80
2023/01/27 04:16:51;;;;;;;26.10;16.45;;;1.80;99.90;;;;;;5004759;28;20463;-80
2023/01/27 04:19:17;;;;;;;29.73;16.50;;;1.80;99.90;;;;;;5008976;28;20786;-79
2023/01/27 04:21:43;;;;;;;31.15;17.75;;;1.60;99.90;;;;;;5006334;28;20404;-80
2023/01/27 04:24:21;;;;;;;33.35;18.40;;;1.70;99.90;;;;;;5005775;28;21193;-80
2023/01/27 04:26:57;;;;;;;28.10;17.02;;;1.60;99.90;;;;;;4993225;28;20407;-80
2023/01/27 04:29:29;;;;;;;23.80;15.27;;;1.70;99.90;;;;;;5008968;28;20680;-81
2023/01/27 04:31:56;;;;;;;23.53;14.20;;;1.80;99.90;;;;;;5003781;28;20514;-80
2023/01/27 04:34:25;;;;;;;27.77;16.30;;;1.70;99.90;;;;;;5006540;28;20399;-81
2023/01/27 04:36:51;;;;;;;23.52;14.15;;;1.80;99.90;;;;;;5007090;28;20425;-81
2023/01/27 04:39:17;;;;;;;21.45;13.55;;;1.60;99.90;;;;;;5008112;28;20383;-80
2023/01/27 04:41:44;;;;;;;21.40;13.60;;;1.80;99.90;;;;;;5007584;28;20387;-82
2023/01/27 04:44:10;;;;;;;23.52;14.02;;;2.00;99.90;;;;;;5008886;28;20872;-81
2023/01/27 04:46:36;;;;;;;28.77;14.73;;;1.70;99.90;;;;;;5008261;28;20411;-81
2023/01/27 04:49:04;;;;;;;23.25;14.23;;;1.90;99.90;;;;;;5009984;28;20379;-81
2023/01/27 04:51:30;;;;;;;21.13;13.63;;;1.70;99.90;;;;;;5013051;28;20409;-81
2023/01/27 04:53:56;;;;;;;20.05;13.80;;;1.70;99.90;;;;;;5012769;28;20846;-82
2023/01/27 04:56:30;;;;;;;22.23;13.60;;;1.80;99.90;;;;;;4993146;28;20392;-80
2023/01/27 04:59:01;;;;;;;20.88;12.75;;;1.60;99.90;;;;;;4999666;28;20394;-80
2023/01/27 05:01:28;;;;;;;21.02;12.45;;;1.80;99.90;;;;;;5012957;28;20387;-81
2023/01/27 05:03:54;;;;;;;18.77;12.30;;;2.00;99.90;;;;;;5011705;28;20458;-80
2023/01/27 05:06:20;;;;;;;17.13;12.15;;;1.60;99.90;;;;;;5012732;28;20375;-78
2023/01/27 05:08:46;;;;;;;18.98;11.73;;;1.70;99.90;;;;;;5010560;28;20406;-79
2023/01/27 05:11:12;;;;;;;19.67;12.63;;;1.80;99.90;;;;;;5011273;28;20407;-81
2023/01/27 05:13:39;;;;;;;17.23;12.25;;;2.00;99.90;;;;;;5011890;28;20757;-80
2023/01/27 05:16:12;;;;;;;19.10;12.18;;;1.90;99.90;;;;;;5011714;28;20429;-80
2023/01/27 05:18:39;;;;;;;19.85;12.07;;;1.80;99.90;;;;;;5013311;28;20387;-80
2023/01/27 05:21:05;;;;;;;21.02;12.70;;;1.80;99.90;;;;;;5009486;28;20966;-80
2023/01/27 05:23:34;;;;;;;26.30;13.10;;;1.60;99.90;;;;;;5010757;28;20398;-81
2023/01/27 05:26:12;;;;;;;20.67;12.80;;;1.80;99.90;;;;;;5009718;28;20383;-80
2023/01/27 05:28:43;;;;;;;22.00;12.20;;;1.90;99.90;;;;;;5010226;28;20395;-81
2023/01/27 05:31:18;;;;;;;17.30;11.70;;;2.00;99.90;;;;;;5009757;28;20510;-80
2023/01/27 05:33:44;;;;;;;22.75;12.55;;;2.00;99.90;;;;;;5012340;28;20438;-82
2023/01/27 05:36:13;;;;;;;19.85;12.05;;;1.80;99.90;;;;;;5009045;28;20882;-81
2023/01/27 05:38:39;;;;;;;18.80;11.90;;;1.80;99.90;;;;;;5010549;28;20534;-82
2023/01/27 05:41:07;;;;;;;21.67;13.23;;;1.70;99.90;;;;;;5011538;28;20383;-81
2023/01/27 05:43:35;;;;;;;19.25;12.20;;;1.80;99.90;;;;;;5011328;28;20866;-80
2023/01/27 05:46:13;;;;;;;19.50;12.23;;;1.70;99.90;;;;;;5011497;28;20725;-81
2023/01/27 05:48:44;;;;;;;24.35;13.43;;;1.70;99.90;;;;;;5011098;28;20375;-81
2023/01/27 05:51:11;;;;;;;24.85;13.65;;;1.70;99.90;;;;;;5011212;28;20407;-81
2023/01/27 05:53:37;;;;;;;25.27;13.52;;;1.60;99.90;;;;;;5011721;28;20447;-80
2023/01/27 05:56:04;;;;;;;29.88;14.43;;;2.00;99.90;;;;;;5011331;28;20421;-81
2023/01/27 05:58:30;;;;;;;24.42;13.20;;;1.80;99.90;;;;;;5011154;28;20387;-80
2023/01/27 06:01:04;;;;;;;21.25;12.77;;;1.80;99.90;;;;;;5010974;28;20861;-80
2023/01/27 06:03:30;;;;;;;21.10;12.43;;;1.80;99.90;;;;;;5009620;28;20410;-80
2023/01/27 06:05:57;;;;;;;21.70;12.27;;;1.90;99.90;;;;;;5010783;28;20489;-81
2023/01/27 06:08:24;;;;;;;21.50;12.85;;;1.80;99.90;;;;;;5010872;28;20850;-80
2023/01/27 06:10:51;;;;;;;20.70;12.27;;;1.60;99.90;;;;;;5010060;28;20410;-79
2023/01/27 06:13:16;;;;;;;20.13;12.43;;;1.90;99.90;;;;;;5010638;28;20383;-80
2023/01/27 06:15:44;;;;;;;24.08;13.95;;;2.20;99.90;;;;;;5010532;28;20481;-78
2023/01/27 06:18:10;;;;;;;22.43;13.17;;;1.90;99.90;;;;;;5007629;28;20391;-81
2023/01/27 06:20:36;;;;;;;22.10;12.68;;;1.70;99.90;;;;;;5009910;28;20399;-78
2023/01/27 06:23:03;;;;;;;23.65;13.25;;;1.80;99.90;;;;;;5008993;28;20403;-80
2023/01/27 06:25:28;;;;;;;21.45;12.77;;;1.80;99.90;;;;;;5010065;28;20395;-80
2023/01/27 06:27:55;;;;;;;21.02;12.90;;;1.80;99.90;;;;;;5009343;28;20399;-79
2023/01/27 06:30:21;;;;;;;21.33;13.50;;;1.80;99.90;;;;;;5009514;28;20413;-80
2023/01/27 06:32:47;;;;;;;22.00;13.80;;;1.90;99.90;;;;;;5008351;28;20391;-79
2023/01/27 06:35:13;;;;;;;21.42;12.95;;;1.80;99.90;;;;;;5009065;28;20414;-80
2023/01/27 06:37:38;;;;;;;27.13;14.02;;;1.80;99.90;;;;;;5008307;28;20404;-81
2023/01/27 06:40:05;;;;;;;21.05;12.57;;;1.90;99.90;;;;;;5007551;28;20399;-80
2023/01/27 06:42:30;;;;;;;21.10;12.38;;;2.00;99.90;;;;;;5008042;28;20407;-79
2023/01/27 06:44:56;;;;;;;22.13;12.52;;;2.00;99.90;;;;;;5010737;28;20845;-80
2023/01/27 06:47:22;;;;;;;22.67;13.45;;;2.20;99.90;;;;;;5003362;28;20388;-80
2023/01/27 06:49:47;;;;;;;21.42;11.88;;;2.00;99.90;;;;;;4990322;28;20368;-80
2023/01/27 06:52:13;;;;;;;23.98;12.95;;;2.00;99.90;;;;;;4991061;28;20450;-79
2023/01/27 06:54:39;;;;;;;21.60;12.75;;;2.10;99.90;;;;;;4990681;28;20380;-79
2023/01/27 06:57:04;;;;;;;22.10;12.93;;;2.00;99.90;;;;;;4992184;28;20385;-81
2023/01/27 06:59:30;;;;;;;23.43;13.27;;;1.90;99.90;;;;;;5010331;28;21080;-79
2023/01/27 07:01:56;;;;;;;17.73;12.03;;;2.10;99.90;;;;;;5010335;28;20507;-80
2023/01/27 07:04:21;;;;;;;23.25;12.70;;;1.90;99.90;;;;;;5010053;28;20478;-81
2023/01/27 07:06:47;;;;;;;17.25;11.43;;;2.00;99.90;;;;;;5010123;28;20394;-80
2023/01/27 07:09:13;;;;;;;20.23;12.10;;;2.10;99.90;;;;;;5010456;28;20413;-81
2023/01/27 07:11:38;;;;;;;17.83;11.43;;;2.10;99.90;;;;;;5007293;28;21752;-80
2023/01/27 07:14:04;;;;;;;17.70;11.57;;;2.10;99.90;;;;;;5009773;28;20414;-80
2023/01/27 07:16:30;;;;;;;18.27;11.27;;;2.10;99.90;;;;;;5006802;28;20434;-80
2023/01/27 07:18:55;;;;;;;17.73;10.87;;;2.20;99.90;;;;;;5008193;28;20425;-79
2023/01/27 07:21:21;;;;;;;15.07;10.00;;;2.30;99.90;;;;;;5009937;28;20439;-80
2023/01/27 07:23:47;;;;;;;15.77;10.75;;;2.50;99.90;;;;;;5008934;28;20545;-80
2023/01/27 07:26:12;;;;;;;15.73;10.38;;;2.40;99.90;;;;;;5006558;28;20442;-80
2023/01/27 07:28:38;;;;;;;13.15;9.40;;;2.40;99.90;;;;;;5008378;28;20407;-78
2023/01/27 07:31:04;;;;;;;16.07;10.70;;;2.40;99.90;;;;;;5008992;28;20407;-78
2023/01/27 07:33:29;;;;;;;18.37;10.60;;;2.40;99.90;;;;;;5008967;28;20394;-78
2023/01/27 07:35:55;;;;;;;16.07;10.23;;;2.40;99.90;;;;;;5008483;28;20906;-78
2023/01/27 07:38:21;;;;;;;14.73;9.37;;;2.60;99.90;;;;;;5001662;28;20475;-80
2023/01/27 07:40:46;;;;;;;13.43;9.45;;;2.60;99.90;;;;;;5006332;28;20569;-79
2023/01/27 07:43:12;;;;;;;12.23;8.73;;;2.60;99.90;;;;;;5009381;28;20428;-80
2023/01/27 07:45:38;;;;;;;13.85;9.45;;;2.80;99.90;;;;;;5009342;28;20387;-79
2023/01/27 07:48:06;;;;;;;12.55;9.00;;;2.90;99.90;;;;;;5008716;28;20498;-78
2023/01/27 07:50:32;;;;;;;14.50;9.45;;;2.70;99.90;;;;;;5008482;28;20433;-80
2023/01/27 07:53:00;;;;;;;14.73;9.07;;;2.60;99.90;;;;;;5010442;28;20691;-81
2023/01/27 07:55:26;;;;;;;11.05;8.43;;;2.60;99.90;;;;;;5010172;28;20379;-81
2023/01/27 07:57:53;;;;;;;13.70;9.27;;;3.20;99.90;;;;;;5012899;28;20375;-81
2023/01/27 08:00:20;;;;;;;13.33;8.47;;;2.70;99.90;;;;;;5007849;28;20415;-80
2023/01/27 08:02:50;;;;;;;9.98;7.63;;;2.80;99.90;;;;;;5008994;28;20434;-80
2023/01/27 08:05:16;;;;;;;10.93;7.97;;;2.90;99.90;;;;;;5010408;28;20934;-82
2023/01/27 08:07:42;;;;;;;9.43;7.03;;;2.90;99.90;;;;;;5006556;28;20399;-82
2023/01/27 08:10:09;;;;;;;10.80;7.35;;;3.10;99.90;;;;;;5008626;28;20418;-79
2023/01/27 08:12:34;;;;;;;8.10;6.60;;;3.10;99.90;;;;;;5007426;28;20501;-82
2023/01/27 08:15:00;;;;;;;11.37;7.30;;;3.20;99.90;;;;;;5010243;28;20493;-79
2023/01/27 08:17:26;;;;;;;12.10;7.53;;;3.30;99.90;;;;;;5009443;28;20391;-77
2023/01/27 08:19:51;;;;;;;13.55;8.52;;;3.40;99.90;;;;;;5007871;28;20446;-80
2023/01/27 08:22:23;;;;;;;12.27;8.13;;;3.10;99.90;;;;;;5002206;28;20429;-79
2023/01/27 08:24:49;;;;;;;15.65;9.57;;;3.20;99.90;;;;;;5012804;28;20445;-80
2023/01/27 08:27:16;;;;;;;13.23;8.85;;;3.40;99.90;;;;;;5012393;28;20442;-80
2023/01/27 08:29:42;;;;;;;12.93;8.80;;;3.90;99.90;;;;;;5011979;28;20407;-80
2023/01/27 08:32:09;;;;;;;14.70;8.93;;;3.60;99.90;;;;;;5008889;28;20422;-79
2023/01/27 08:34:36;;;;;;;17.10;9.67;;;3.40;99.90;;;;;;5010867;28;20406;-82
2023/01/27 08:37:03;;;;;;;18.52;10.77;;;3.50;99.90;;;;;;5010963;28;20394;-81
2023/01/27 08:39:29;;;;;;;16.73;9.87;;;3.80;99.90;;;;;;5010519;28;20406;-80
2023/01/27 08:41:54;;;;;;;17.20;10.07;;;3.60;99.90;;;;;;5011097;28;20407;-81
2023/01/27 08:44:20;;;;;;;15.47;9.03;;;3.70;99.90;;;;;;5010962;28;20992;-81
2023/01/27 08:46:45;;;;;;;18.17;10.00;;;3.00;99.90;;;;;;5010762;28;20435;-80
2023/01/27 08:49:14;;;;;;;18.27;10.43;;;3.50;99.90;;;;;;5011571;28;20407;-81
2023/01/27 08:51:41;;;;;;;18.00;9.88;;;3.50;99.90;;;;;;5012717;28;20468;-81
2023/01/27 08:54:08;;;;;;;17.65;10.30;;;3.50;99.90;;;;;;5012720;28;20450;-83
2023/01/27 08:56:34;;;;;;;15.15;9.00;;;3.60;99.90;;;;;;5012858;28;20383;-82
2023/01/27 08:59:00;;;;;;;16.70;9.07;;;3.70;99.90;;;;;;5010544;28;20453;-81
2023/01/27 09:01:26;;;;;;;13.32;8.13;;;3.60;99.90;;;;;;5011353;28;20379;-80
2023/01/27 09:03:51;;;;;;;13.57;8.40;;;3.60;99.90;;;;;;5012348;28;20387;-80
2023/01/27 09:06:18;;;;;;;15.73;8.63;;;3.90;99.90;;;;;;5013200;28;20422;-83
2023/01/27 09:09:07;;;;;;;12.40;7.93;;;3.70;99.90;;;;;;5012333;28;20383;-83
2023/01/27 09:11:30;;;;;;;12.05;7.60;;;3.80;99.90;;;;;;5008351;28;20501;-81
2023/01/27 09:13:55;;;;;;;11.52;7.60;;;3.80;99.90;;;;;;5012061;28;20504;-80
2023/01/27 09:16:21;;;;;;;12.33;8.00;;;3.80;99.90;;;;;;5012267;28;20398;-81
2023/01/27 09:18:47;;;;;;;12.07;7.90;;;3.70;99.90;;;;;;5010816;28;20371;-81
2023/01/27 09:21:13;;;;;;;13.53;8.13;;;3.80;99.90;;;;;;5011242;28;20473;-81
2023/01/27 09:23:38;;;;;;;12.18;7.35;;;3.90;99.90;;;;;;5012564;28;20458;-81
2023/01/27 09:26:07;;;;;;;12.30;7.53;;;3.90;99.90;;;;;;5005917;28;20956;-82
2023/01/27 09:28:32;;;;;;;11.57;8.45;;;3.80;99.90;;;;;;5000870;28;20465;-82
2023/01/27 09:30:59;;;;;;;12.60;7.90;;;3.70;99.90;;;;;;4997405;28;20407;-81
2023/01/27 09:33:25;;;;;;;13.27;8.25;;;3.70;99.90;;;;;;5003611;28;20418;-81
2023/01/27 09:36:00;;;;;;;11.53;8.00;;;3.60;99.90;;;;;;5002237;28;20399;-82
2023/01/27 09:38:30;;;;;;;11.75;8.20;;;3.70;99.90;;;;;;5006927;28;20410;-82
2023/01/27 09:41:35;;;;;;;12.93;8.52;;;3.80;99.90;;;;;;5009627;28;20406;-82
2023/01/27 09:44:31;;;;;;;13.43;8.55;;;3.90;99.90;;;;;;4998794;28;20411;-80
2023/01/27 09:47:06;;;;;;;13.98;9.07;;;3.80;99.90;;;;;;5008530;28;20753;-81
2023/01/27 09:50:16;;;;;;;14.07;8.95;;;3.70;99.90;;;;;;5004819;28;20439;-81
2023/01/27 09:53:08;;;;;;;12.85;9.38;;;3.80;99.90;;;;;;5005238;28;20411;-81
2023/01/27 09:55:37;;;;;;;16.08;9.63;;;3.90;99.90;;;;;;5009542;28;20375;-80
2023/01/27 09:58:34;;;;;;;17.08;9.60;;;3.90;99.90;;;;;;5000147;28;20408;-82
2023/01/27 10:01:37;;;;;;;15.55;9.50;;;4.30;99.90;;;;;;5006078;28;21131;-81
2023/01/27 10:04:51;;;;;;;15.65;9.98;;;3.90;99.90;;;;;;5002903;28;20480;-81
2023/01/27 10:07:33;;;;;;;12.73;8.60;;;3.80;99.90;;;;;;4989970;28;20456;-80
2023/01/27 10:10:01;;;;;;;13.10;8.30;;;3.80;99.90;;;;;;5007649;28;20395;-81
2023/01/27 10:12:55;;;;;;;14.55;9.05;;;4.10;99.90;;;;;;5005957;28;20406;-82
2023/01/27 10:15:20;;;;;;;12.37;8.30;;;4.10;99.90;;;;;;5009012;28;20462;-82
2023/01/27 10:18:01;;;;;;;11.57;7.73;;;4.00;99.90;;;;;;4994633;28;20579;-84
2023/01/27 10:21:01;;;;;;;15.13;8.18;;;3.90;99.90;;;;;;5006330;28;20411;-81
2023/01/27 10:23:36;;;;;;;14.25;8.13;;;3.90;99.90;;;;;;5008669;28;20742;-81
2023/01/27 10:26:07;;;;;;;13.88;7.68;;;4.00;99.90;;;;;;5008241;28;20382;-82
2023/01/27 10:28:35;;;;;;;14.82;8.43;;;4.00;99.90;;;;;;5001510;28;20403;-81
2023/01/27 10:31:07;;;;;;;14.53;8.30;;;4.00;99.90;;;;;;5011526;28;20509;-82
2023/01/27 10:33:49;;;;;;;10.80;7.07;;;3.90;99.90;;;;;;5012345;28;20423;-82
2023/01/27 10:36:28;;;;;;;11.57;7.68;;;4.20;99.90;;;;;;5013726;28;20405;-82
2023/01/27 10:39:06;;;;;;;13.17;7.87;;;4.00;99.90;;;;;;5013645;28;20469;-83
2023/01/27 10:42:13;;;;;;;11.05;7.40;;;4.10;99.90;;;;;;5020371;28;20477;-84
2023/01/27 10:45:03;;;;;;;11.13;7.60;;;4.00;99.90;;;;;;5018449;28;20406;-82
2023/01/27 10:48:05;;;;;;;11.10;6.85;;;4.10;99.90;;;;;;5011344;28;20401;-83
2023/01/27 10:51:15;;;;;;;12.55;7.45;;;4.20;99.90;;;;;;5009240;28;20418;-84
2023/01/27 10:53:49;;;;;;;11.55;7.03;;;4.00;99.90;;;;;;4984952;28;20386;-83
2023/01/27 10:56:41;;;;;;;8.20;5.70;;;4.00;99.90;;;;;;5010128;28;20792;-83
2023/01/27 10:59:18;;;;;;;11.18;6.60;;;3.90;99.90;;;;;;4999760;28;20395;-84
2023/01/27 11:01:59;;;;;;;9.60;6.18;;;4.00;99.90;;;;;;5009626;28;20462;-82
2023/01/27 11:04:33;;;;;;;12.05;6.88;;;4.00;99.90;;;;;;4991546;28;20416;-83
2023/01/27 11:07:04;;;;;;;13.27;7.05;;;3.90;99.90;;;;;;4990317;28;20459;-82
2023/01/27 11:09:36;;;;;;;12.73;7.67;;;3.90;99.90;;;;;;4990966;28;20384;-82
2023/01/27 11:12:12;;;;;;;11.95;7.00;;;3.80;99.90;;;;;;4989230;28;20408;-82
2023/01/27 11:14:37;;;;;;;13.60;7.22;;;3.90;99.90;;;;;;4990419;28;20380;-81
2023/01/27 11:17:36;;;;;;;11.85;6.88;;;3.90;99.90;;;;;;4989704;28;20393;-82
2023/01/27 11:20:18;;;;;;;12.68;7.28;;;4.10;99.90;;;;;;4989789;28;20464;-82
2023/01/27 11:22:55;;;;;;;10.98;7.07;;;3.80;99.90;;;;;;4988140;28;20400;-82
2023/01/27 11:25:42;;;;;;;12.95;7.55;;;3.80;99.90;;;;;;4989502;28;20388;-82
2023/01/27 11:28:40;;;;;;;15.50;7.93;;;3.70;99.90;;;;;;4997440;28;20461;-82
2023/01/27 11:31:28;;;;;;;17.85;8.38;;;3.70;99.90;;;;;;5010180;28;20472;-82
2023/01/27 11:34:18;;;;;;;14.90;8.75;;;3.70;99.90;;;;;;5009835;28;20429;-81
2023/01/27 11:36:44;;;;;;;16.03;8.63;;;3.70;99.90;;;;;;5009601;28;20486;-81
2023/01/27 11:39:13;;;;;;;17.60;9.60;;;3.80;99.90;;;;;;5007861;28;20411;-82
2023/01/27 11:41:52;;;;;;;17.33;10.00;;;3.70;99.90;;;;;;5008911;28;20857;-82
2023/01/27 11:44:29;;;;;;;20.02;10.52;;;3.70;99.90;;;;;;5009725;28;20390;-82
2023/01/27 11:46:55;;;;;;;19.88;11.30;;;3.60;99.90;;;;;;5009838;28;20395;-81
2023/01/27 11:49:29;;;;;;;17.85;10.73;;;3.70;99.90;;;;;;5009671;28;20386;-82
2023/01/27 11:52:04;;;;;;;20.33;11.80;;;3.70;99.90;;;;;;5009570;28;20406;-82
2023/01/27 11:54:38;;;;;;;20.98;11.65;;;3.70;99.90;;;;;;5008092;28;20446;-82
2023/01/27 11:57:04;;;;;;;18.60;11.98;;;3.60;99.90;;;;;;5009110;28;20398;-82
2023/01/27 11:59:36;;;;;;;19.05;11.63;;;3.70;99.90;;;;;;5009662;28;20376;-83
2023/01/27 12:02:23;;;;;;;19.40;11.57;;;3.70;99.90;;;;;;5008883;28;20390;-83
2023/01/27 12:05:07;;;;;;;21.42;12.13;;;3.70;99.90;;;;;;5009777;28;20359;-81
2023/01/27 12:07:54;;;;;;;19.67;12.65;;;3.80;99.90;;;;;;5007057;28;20403;-81
2023/01/27 12:10:24;;;;;;;19.13;12.13;;;3.70;99.90;;;;;;5009221;28;20444;-81
2023/01/27 12:12:50;;;;;;;17.67;11.85;;;3.80;99.90;;;;;;5008741;28;20490;-81
2023/01/27 12:15:17;;;;;;;18.67;12.02;;;3.70;99.90;;;;;;5008758;28;20450;-82
2023/01/27 12:18:11;;;;;;;16.83;12.13;;;3.70;99.90;;;;;;5007329;28;20457;-82
2023/01/27 12:20:43;;;;;;;19.50;12.20;;;3.70;99.90;;;;;;5008929;28;20387;-81
2023/01/27 12:23:25;;;;;;;17.53;12.27;;;3.60;99.90;;;;;;5008166;28;20458;-81
2023/01/27 12:26:21;;;;;;;15.98;10.82;;;3.70;99.90;;;;;;5003855;28;20877;-82
2023/01/27 12:28:52;;;;;;;16.05;10.75;;;3.80;99.90;;;;;;5006855;28;20375;-82
2023/01/27 12:31:29;;;;;;;16.83;11.07;;;3.50;99.90;;;;;;5007758;28;20439;-82
2023/01/27 12:34:06;;;;;;;15.48;11.40;;;3.80;99.90;;;;;;5008450;28;20380;-82
2023/01/27 12:36:41;;;;;;;14.48;11.15;;;3.80;99.90;;;;;;5006029;28;20507;-81
2023/01/27 12:39:23;;;;;;;13.70;11.07;;;3.80;99.90;;;;;;5008409;28;20375;-82
2023/01/27 12:41:49;;;;;;;15.35;10.10;;;3.70;99.90;;;;;;5008070;28;20375;-81
2023/01/27 12:44:18;;;;;;;13.25;10.32;;;3.80;99.90;;;;;;5008233;28;20411;-81
2023/01/27 12:46:58;;;;;;;12.80;10.77;;;3.70;99.90;;;;;;5008891;28;20394;-81
2023/01/27 12:49:29;;;;;;;13.90;9.75;;;3.80;99.90;;;;;;5007493;28;20912;-79
2023/01/27 12:51:55;;;;;;;11.15;9.60;;;3.80;99.90;;;;;;5007958;28;20516;-82
2023/01/27 12:54:26;;;;;;;13.23;9.70;;;3.80;99.90;;;;;;5009375;28;20422;-82
2023/01/27 12:56:54;;;;;;;10.77;9.57;;;3.90;99.90;;;;;;5008358;28;20490;-80
2023/01/27 12:59:24;;;;;;;10.55;9.45;;;4.00;99.90;;;;;;5009363;28;20387;-81
2023/01/27 13:02:14;;;;;;;13.67;9.93;;;3.90;99.90;;;;;;5009472;28;20532;-81
2023/01/27 13:04:41;;;;;;;10.25;8.80;;;3.80;99.90;;;;;;5008529;28;20379;-82
2023/01/27 13:07:16;;;;;;;12.10;9.13;;;3.90;99.90;;;;;;5009592;28;20458;-80
2023/01/27 13:10:00;;;;;;;12.32;8.88;;;3.90;99.90;;;;;;5010828;28;20395;-81
2023/01/27 13:12:28;;;;;;;11.40;8.50;;;3.80;99.90;;;;;;5013942;28;20423;-81
2023/01/27 13:15:04;;;;;;;12.83;8.53;;;3.80;99.90;;;;;;5014682;28;20381;-81
2023/01/27 13:17:42;;;;;;;11.60;7.80;;;4.00;99.90;;;;;;5013080;28;20485;-82
2023/01/27 13:20:32;;;;;;;10.30;7.13;;;4.00;99.90;;;;;;5016569;28;20387;-81
2023/01/27 13:23:04;;;;;;;10.20;7.50;;;4.00;99.90;;;;;;5020174;28;20414;-80
2023/01/27 13:25:36;;;;;;;9.00;6.78;;;4.30;99.90;;;;;;5023886;28;20391;-81
2023/01/27 13:28:04;;;;;;;8.32;6.13;;;4.10;99.90;;;;;;5011747;28;20392;-79